Flight Track Log - Related Links

Times and Time Zones

All times are in EDT time to prevent confusion due to time zone crossing. See the SWA1725 flight status page for this flight to view local times or setup timezone preferences in your user account.

Time Position Orientation Groundspeed Altitude Reporting Facility
EDT Latitude Longitude Course Direction KTS MPH feet Rate Location/Type
Sat 09:57:40 AM 41.8000 -87.8167 360° North 199 229 2,600  Level Chicago TRACON
Sat 09:57:40 AM 41.8000 -87.8167 242° Southwest 199 229 2,600 444 Level Chicago TRACON
Sat 09:58:34 AM 41.7667 -87.9000 242° Southwest 249 287 3,000 444 Climbing Chicago TRACON
Sat 09:58:34 AM 41.7667 -87.9000 242° Southwest 249 287 3,000  Level Chicago TRACON
Sat 09:59:04 AM 41.7619 -87.9411 261° West 240 276 3,000  Level Chicago Center
Sat 09:59:04 AM 41.7619 -87.9411 261° West 240 276 3,000 774 Level Chicago Center
Sat 10:00:06 AM 41.7703 -88.0397 276° West 261 300 3,800 774 Climbing Chicago Center
Sat 10:00:06 AM 41.7703 -88.0397 276° West 261 300 3,800 787 Level Chicago Center
Sat 10:01:07 AM 41.7806 -88.1372 278° West 267 307 4,600 787 Climbing Chicago Center
Sat 10:01:07 AM 41.7806 -88.1372 278° West 267 307 4,600 871 Level Chicago Center
Sat 10:02:09 AM 41.7922 -88.2367 279° West 272 313 5,500 871 Climbing Chicago Center
Sat 10:02:09 AM 41.7922 -88.2367 279° West 272 313 5,500 3,000 Level Chicago Center
Sat 10:03:11 AM 41.8075 -88.3575 280° West 277 319 8,600 3,000 Climbing Chicago Center
Sat 10:03:11 AM 41.8075 -88.3575 280° West 277 319 8,600 2,806 Level Chicago Center
Sat 10:04:13 AM 41.8133 -88.4633 274° West 285 328 11,500 2,806 Climbing Chicago Center
Sat 10:04:13 AM 41.8133 -88.4633 274° West 285 328 11,500 1,770 Level Chicago Center
Sat 10:05:14 AM 41.8128 -88.5744 270° West 299 344 13,300 1,770 Climbing Chicago Center
Sat 10:05:14 AM 41.8128 -88.5744 270° West 299 344 13,300 1,935 Level Chicago Center
Sat 10:06:16 AM 41.8125 -88.6903 270° West 310 357 15,300 1,935 Climbing Chicago Center
Sat 10:06:16 AM 41.8125 -88.6903 270° West 310 357 15,300 1,279 Level Chicago Center
Sat 10:07:17 AM 41.8531 -88.8150 294° West 366 421 16,600 1,279 Climbing Chicago Center
Sat 10:07:17 AM 41.8531 -88.8150 294° West 366 421 16,600 2,032 Level Chicago Center
Sat 10:08:19 AM 41.8967 -88.9492 294° West 391 450 18,700 2,032 Climbing Chicago Center
Sat 10:08:19 AM 41.8967 -88.9492 294° West 391 450 18,700 2,226 Level Chicago Center
Sat 10:09:21 AM 41.9522 -89.1139 294° West 403 464 21,000 2,226 Climbing Chicago Center
Sat 10:09:21 AM 41.9522 -89.1139 294° West 403 464 21,000 1,935 Level Chicago Center
Sat 10:10:23 AM 42.0006 -89.2572 294° West 421 484 23,000 1,935 Climbing Chicago Center
Sat 10:10:23 AM 42.0006 -89.2572 294° West 421 484 23,000 1,967 Level Chicago Center
Sat 10:11:24 AM 42.0422 -89.3992 292° West 412 474 25,000 1,967 Climbing Chicago Center
Sat 10:11:24 AM 42.0422 -89.3992 292° West 412 474 25,000 2,129 Level Chicago Center
Sat 10:12:26 AM 42.0469 -89.5506 272° West 403 464 27,200 2,129 Climbing Chicago Center
Sat 10:12:26 AM 42.0469 -89.5506 272° West 403 464 27,200 1,161 Level Chicago Center
Sat 10:13:28 AM 42.0514 -89.6997 272° West 400 460 28,400 1,161 Climbing Chicago Center
Sat 10:13:28 AM 42.0514 -89.6997 272° West 400 460 28,400 290 Level Chicago Center
Sat 10:14:30 AM 42.0572 -89.8572 273° West 421 484 28,700 290 Climbing Chicago Center
Sat 10:14:30 AM 42.0572 -89.8572 273° West 421 484 28,700 968 Level Chicago Center
Sat 10:15:32 AM 42.0664 -90.0286 274° West 452 520 29,700 968 Climbing Chicago Center
Sat 10:15:32 AM 42.0664 -90.0286 274° West 452 520 29,700 1,574 Level Chicago Center
Sat 10:16:33 AM 42.0747 -90.2350 273° West 463 533 31,300 1,574 Climbing Chicago Center
Sat 10:16:33 AM 42.0747 -90.2350 273° West 463 533 31,300 1,548 Level Chicago Center
Sat 10:17:35 AM 42.0794 -90.4003 272° West 449 517 32,900 1,548 Climbing Chicago Center
Sat 10:17:35 AM 42.0794 -90.4003 272° West 449 517 32,900 968 Level Chicago Center
Sat 10:18:37 AM 42.1000 -90.5603 280° West 449 517 33,900 968 Climbing Chicago Center
Sat 10:18:37 AM 42.1000 -90.5603 280° West 449 517 33,900 97 Level Chicago Center
Sat 10:19:39 AM 42.1528 -90.7117 295° West 449 517 34,000 97 Climbing Chicago Center
Sat 10:19:39 AM 42.1528 -90.7117 295° West 449 517 34,000  Level Chicago Center
Sat 10:20:41 AM 42.2050 -90.8656 295° West 454 522 34,000  Level Chicago Center
Sat 10:20:41 AM 42.2050 -90.8656 295° West 454 522 34,000  Level Chicago Center
Sat 10:21:43 AM 42.2589 -91.0189 295° West 456 525 34,000  Level Chicago Center
Sat 10:21:43 AM 42.2589 -91.0189 295° West 456 525 34,000  Level Chicago Center
Sat 10:22:45 AM 42.3233 -91.2061 295° West 459 528 34,000  Level Chicago Center
Sat 10:22:45 AM 42.3233 -91.2061 295° West 459 528 34,000  Level Chicago Center
Sat 10:23:46 AM 42.3767 -91.3617 295° West 459 528 34,000  Level Chicago Center
Sat 10:23:46 AM 42.3767 -91.3617 295° West 459 528 34,000  Level Chicago Center
Sat 10:24:48 AM 42.4303 -91.5178 295° West 460 529 34,000  Level Chicago Center
Sat 10:24:48 AM 42.4303 -91.5178 295° West 460 529 34,000  Level Chicago Center
Sat 10:25:50 AM 42.4822 -91.6756 294° West 459 528 34,000  Level Chicago Center
Sat 10:25:50 AM 42.4822 -91.6756 294° West 459 528 34,000  Level Chicago Center
Sat 10:26:52 AM 42.5353 -91.8333 295° West 458 527 34,000  Level Chicago Center
Sat 10:26:52 AM 42.5353 -91.8333 295° West 458 527 34,000  Level Chicago Center
Sat 10:27:54 AM 42.5881 -91.9894 295° West 456 525 34,000  Level Chicago Center
Sat 10:27:54 AM 42.5881 -91.9894 295° West 456 525 34,000  Level Chicago Center
Sat 10:28:56 AM 42.6500 -92.1753 294° West 451 519 34,000  Level Chicago Center
Sat 10:28:56 AM 42.6500 -92.1753 294° West 451 519 34,000  Level Chicago Center
Sat 10:29:58 AM 42.7003 -92.3275 294° West 446 513 34,000  Level Chicago Center
Sat 10:29:58 AM 42.7003 -92.3275 294° West 446 513 34,000  Level Chicago Center
Sat 10:31:00 AM 42.7506 -92.4792 294° West 444 511 34,000  Level Chicago Center
Sat 10:31:00 AM 42.7506 -92.4792 294° West 444 511 34,000  Level Chicago Center
Sat 10:32:02 AM 42.8000 -92.6308 294° West 442 509 34,000  Level Chicago Center
Sat 10:32:02 AM 42.8000 -92.6308 294° West 442 509 34,000  Level Chicago Center
Sat 10:33:03 AM 42.8508 -92.7825 295° West 443 510 34,000  Level Chicago Center
Sat 10:33:03 AM 42.8508 -92.7825 295° West 443 510 34,000  Level Chicago Center
Sat 10:34:05 AM 42.8994 -92.9333 294° West 441 507 34,000  Level Chicago Center
Sat 10:34:05 AM 42.8994 -92.9333 294° West 441 507 34,000  Level Chicago Center
Sat 10:35:07 AM 42.9575 -93.1172 293° West 442 509 34,000  Level Chicago Center
Sat 10:35:07 AM 42.9575 -93.1172 293° West 442 509 34,000  Level Chicago Center
Sat 10:36:09 AM 43.0067 -93.2681 294° West 441 507 34,000  Level Chicago Center
Sat 10:36:09 AM 43.0067 -93.2681 294° West 441 507 34,000  Level Chicago Center
Sat 10:37:11 AM 43.0536 -93.4200 293° West 438 504 34,000  Level Chicago Center
Sat 10:37:11 AM 43.0536 -93.4200 293° West 438 504 34,000  Level Chicago Center
Sat 10:38:13 AM 43.1025 -93.5719 294° West 439 505 34,000  Level Chicago Center
Sat 10:38:13 AM 43.1025 -93.5719 294° West 439 505 34,000  Level Chicago Center
Sat 10:39:15 AM 43.1497 -93.7242 293° West 439 505 34,000  Level Chicago Center
Sat 10:39:15 AM 43.1497 -93.7242 293° West 439 505 34,000  Level Chicago Center
Sat 10:40:17 AM 43.2067 -93.9044 293° West 435 501 34,000  Level Chicago Center
Sat 10:40:17 AM 43.2067 -93.9044 293° West 435 501 34,000  Level Chicago Center
Sat 10:41:32 AM 43.2628 -94.0833 293° West 431 496 34,000  Level Minneapolis Center
Sat 10:41:32 AM 43.2628 -94.0833 293° West 431 496 34,000  Level Minneapolis Center
Sat 10:42:33 AM 43.3133 -94.2486 293° West 428 493 34,000  Level Minneapolis Center
Sat 10:42:33 AM 43.3133 -94.2486 293° West 428 493 34,000  Level Minneapolis Center
Sat 10:43:35 AM 43.3575 -94.3922 293° West 425 489 34,000  Level Minneapolis Center
Sat 10:43:35 AM 43.3575 -94.3922 293° West 425 489 34,000  Level Minneapolis Center
Sat 10:44:37 AM 43.4031 -94.5414 293° West 424 488 34,000  Level Minneapolis Center
Sat 10:44:37 AM 43.4031 -94.5414 293° West 424 488 34,000  Level Minneapolis Center
Sat 10:45:39 AM 43.4489 -94.6914 293° West 426 490 34,000  Level Minneapolis Center
Sat 10:45:39 AM 43.4489 -94.6914 293° West 426 490 34,000  Level Minneapolis Center
Sat 10:46:41 AM 43.4947 -94.8422 293° West 427 491 34,000  Level Minneapolis Center
Sat 10:46:41 AM 43.4947 -94.8422 293° West 427 491 34,000  Level Minneapolis Center
Sat 10:47:43 AM 43.5497 -95.0250 293° West 430 495 34,000  Level Minneapolis Center
Sat 10:47:43 AM 43.5497 -95.0250 293° West 430 495 34,000  Level Minneapolis Center
Sat 10:48:45 AM 43.5944 -95.1781 292° West 431 496 34,000  Level Minneapolis Center
Sat 10:48:45 AM 43.5944 -95.1781 292° West 431 496 34,000  Level Minneapolis Center
Sat 10:49:47 AM 43.6403 -95.3319 292° West 433 498 34,000  Level Minneapolis Center
Sat 10:49:47 AM 43.6403 -95.3319 292° West 433 498 34,000  Level Minneapolis Center
Sat 10:50:49 AM 43.6858 -95.4881 292° West 438 504 34,000  Level Minneapolis Center
Sat 10:50:49 AM 43.6858 -95.4881 292° West 438 504 34,000  Level Minneapolis Center
Sat 10:51:51 AM 43.7306 -95.6417 292° West 433 498 34,000  Level Minneapolis Center
Sat 10:51:51 AM 43.7306 -95.6417 292° West 433 498 34,000  Level Minneapolis Center
Sat 10:52:53 AM 43.7756 -95.7953 292° West 431 496 34,000  Level Minneapolis Center
Sat 10:52:53 AM 43.7756 -95.7953 292° West 431 496 34,000  Level Minneapolis Center
Sat 10:53:55 AM 43.8203 -95.9489 292° West 430 495 34,000  Level Minneapolis Center
Sat 10:53:55 AM 43.8203 -95.9489 292° West 430 495 34,000  Level Minneapolis Center
Sat 10:54:57 AM 43.8725 -96.1350 291° West 430 495 34,000  Level Minneapolis Center
Sat 10:54:57 AM 43.8725 -96.1350 291° West 430 495 34,000  Level Minneapolis Center
Sat 10:55:59 AM 43.9167 -96.2897 292° West 427 491 34,000  Level Minneapolis Center
Sat 10:55:59 AM 43.9167 -96.2897 292° West 427 491 34,000  Level Minneapolis Center
Sat 10:57:01 AM 43.9608 -96.4458 292° West 430 495 34,000  Level Minneapolis Center
Sat 10:57:01 AM 43.9608 -96.4458 292° West 430 495 34,000  Level Minneapolis Center
Sat 10:58:03 AM 44.0042 -96.6006 291° West 427 491 34,000  Level Minneapolis Center
Sat 10:58:03 AM 44.0042 -96.6006 291° West 427 491 34,000  Level Minneapolis Center
Sat 10:59:05 AM 44.0461 -96.7525 291° West 422 486 34,000  Level Minneapolis Center
Sat 10:59:05 AM 44.0461 -96.7525 291° West 422 486 34,000  Level Minneapolis Center
Sat 11:00:07 AM 44.0886 -96.9044 291° West 420 483 34,000  Level Minneapolis Center
Sat 11:00:07 AM 44.0886 -96.9044 291° West 420 483 34,000  Level Minneapolis Center
Sat 11:01:09 AM 44.1306 -97.0553 291° West 419 482 34,000  Level Minneapolis Center
Sat 11:01:09 AM 44.1306 -97.0553 291° West 419 482 34,000  Level Minneapolis Center
Sat 11:02:11 AM 44.1708 -97.2058 291° West 417 480 34,000  Level Minneapolis Center
Sat 11:02:11 AM 44.1708 -97.2058 291° West 417 480 34,000  Level Minneapolis Center
Sat 11:03:13 AM 44.2214 -97.3864 291° West 417 480 34,000  Level Minneapolis Center
Sat 11:03:13 AM 44.2214 -97.3864 291° West 417 480 34,000  Level Minneapolis Center
Sat 11:04:15 AM 44.2619 -97.5356 291° West 414 476 34,000  Level Minneapolis Center
Sat 11:04:15 AM 44.2619 -97.5356 291° West 414 476 34,000  Level Minneapolis Center
Sat 11:05:16 AM 44.3019 -97.6856 290° West 414 476 34,000  Level Minneapolis Center
Sat 11:05:16 AM 44.3019 -97.6856 290° West 414 476 34,000  Level Minneapolis Center
Sat 11:06:18 AM 44.3411 -97.8331 290° West 409 471 34,000  Level Minneapolis Center
Sat 11:06:18 AM 44.3411 -97.8331 290° West 409 471 34,000  Level Minneapolis Center
Sat 11:07:20 AM 44.3808 -97.9828 290° West 410 472 34,000  Level Minneapolis Center
Sat 11:07:20 AM 44.3808 -97.9828 290° West 410 472 34,000  Level Minneapolis Center
Sat 11:08:22 AM 44.4211 -98.1306 291° West 409 471 34,000  Level Minneapolis Center
Sat 11:08:22 AM 44.4211 -98.1306 291° West 409 471 34,000  Level Minneapolis Center
Sat 11:09:24 AM 44.4669 -98.3094 290° West 408 470 34,000  Level Minneapolis Center
Sat 11:09:24 AM 44.4669 -98.3094 290° West 408 470 34,000  Level Minneapolis Center
Sat 11:10:26 AM 44.5008 -98.4356 291° West 409 471 34,000  Level Minneapolis Center
Sat 11:10:26 AM 44.5008 -98.4356 291° West 409 471 34,000  Level Minneapolis Center
Sat 11:11:28 AM 44.5467 -98.6167 290° West 411 473 34,000  Level Minneapolis Center
Sat 11:11:28 AM 44.5467 -98.6167 290° West 411 473 34,000  Level Minneapolis Center
Sat 11:12:30 AM 44.5869 -98.7678 291° West 414 476 34,000  Level Minneapolis Center
Sat 11:12:30 AM 44.5869 -98.7678 291° West 414 476 34,000  Level Minneapolis Center
Sat 11:13:32 AM 44.6250 -98.9203 289° West 414 476 34,000  Level Minneapolis Center
Sat 11:13:32 AM 44.6250 -98.9203 289° West 414 476 34,000  Level Minneapolis Center
Sat 11:14:34 AM 44.6644 -99.0761 290° West 421 484 34,000  Level Minneapolis Center
Sat 11:14:34 AM 44.6644 -99.0761 290° West 421 484 34,000  Level Minneapolis Center
Sat 11:15:36 AM 44.7036 -99.2317 290° West 422 486 34,000  Level Minneapolis Center
Sat 11:15:36 AM 44.7036 -99.2317 290° West 422 486 34,000 677 Level Minneapolis Center
Sat 11:16:38 AM 44.7411 -99.3861 289° West 419 482 34,700 677 Climbing Minneapolis Center
Sat 11:16:38 AM 44.7411 -99.3861 289° West 419 482 34,700 1,258 Level Minneapolis Center
Sat 11:17:40 AM 44.7858 -99.5664 289° West 409 471 36,000 1,258 Climbing Minneapolis Center
Sat 11:17:40 AM 44.7858 -99.5664 289° West 409 471 36,000  Level Minneapolis Center
Sat 11:18:42 AM 44.8225 -99.7169 289° West 406 467 36,000  Level Minneapolis Center
Sat 11:18:42 AM 44.8225 -99.7169 289° West 406 467 36,000  Level Minneapolis Center
Sat 11:19:44 AM 44.8589 -99.8692 289° West 406 467 36,000  Level Minneapolis Center
Sat 11:19:44 AM 44.8589 -99.8692 289° West 406 467 36,000  Level Minneapolis Center
Sat 11:25:55 AM 45.0822 -100.7931 289° West 409 471 36,000  Level Minneapolis Center
Sat 11:26:57 AM 45.1175 -100.9469 288° West 411 473 36,000  Level Minneapolis Center
Sat 11:27:59 AM 45.1611 -101.1289 289° West 407 468 36,000  Level Minneapolis Center
Sat 11:29:00 AM 45.1964 -101.2786 289° West 403 464 36,000  Level Minneapolis Center
Sat 11:30:02 AM 45.2303 -101.4297 288° West 402 463 36,000  Level Minneapolis Center
Sat 11:31:04 AM 45.2658 -101.5819 288° West 405 466 36,000  Level Minneapolis Center
Sat 11:32:06 AM 45.2992 -101.7353 287° West 406 467 36,000  Level Minneapolis Center
Sat 11:33:08 AM 45.3339 -101.8881 288° West 406 467 36,000  Level Minneapolis Center
Sat 11:34:10 AM 45.3689 -102.0422 288° West 409 471 36,000  Level Minneapolis Center
Sat 11:35:11 AM 45.4094 -102.2289 287° West 411 473 36,000  Level Minneapolis Center
Sat 11:36:13 AM 45.4425 -102.3856 287° West 413 475 36,000  Level Minneapolis Center
Sat 11:37:15 AM 45.4761 -102.5419 287° West 413 475 36,000  Level Minneapolis Center
Sat 11:38:17 AM 45.5103 -102.6981 287° West 413 475 36,000  Level Minneapolis Center
Sat 11:39:19 AM 45.5444 -102.8544 287° West 413 475 36,000  Level Minneapolis Center
Sat 11:40:21 AM 45.5794 -103.0192 287° West 407 468 36,000  Level Minneapolis Center
Sat 11:41:23 AM 45.6106 -103.1728 286° West 405 466 36,000  Level Minneapolis Center
Sat 11:42:26 AM 45.6417 -103.3236 286° West 404 465 36,000  Level Salt Lake Center
Sat 11:43:28 AM 45.6736 -103.4769 287° West 402 463 36,000  Level Salt Lake Center
Sat 11:44:30 AM 45.7108 -103.6589 286° West 400 460 36,000  Level Salt Lake Center
Sat 11:45:32 AM 45.7417 -103.8147 286° West 404 465 36,000  Level Salt Lake Center
Sat 11:46:34 AM 45.7717 -103.9656 286° West 398 458 36,000  Level Salt Lake Center
Sat 11:47:36 AM 45.8022 -104.1178 286° West 398 458 36,000  Level Salt Lake Center
Sat 11:48:38 AM 45.8325 -104.2694 286° West 396 456 36,000  Level Salt Lake Center
Sat 11:49:40 AM 45.8619 -104.4217 286° West 396 456 36,000  Level Salt Lake Center
Sat 11:50:42 AM 45.8981 -104.6031 286° West 401 461 36,000  Level Salt Lake Center
Sat 11:51:44 AM 45.9275 -104.7578 285° West 403 464 36,000  Level Salt Lake Center
Sat 11:52:46 AM 45.9556 -104.9103 285° West 398 458 36,000  Level Salt Lake Center
Sat 11:53:49 AM 45.9850 -105.0678 285° West 404 465 36,000  Level Salt Lake Center
Sat 11:54:51 AM 46.0153 -105.2250 286° West 407 468 36,000  Level Salt Lake Center
Sat 11:55:53 AM 46.0503 -105.4117 285° West 407 468 36,000  Level Salt Lake Center
Sat 11:56:55 AM 46.0797 -105.5664 285° West 404 465 36,000  Level Salt Lake Center
Sat 11:57:57 AM 46.1072 -105.7200 285° West 401 461 36,000  Level Salt Lake Center
Sat 11:58:59 AM 46.1342 -105.8742 284° West 399 459 36,000  Level Salt Lake Center
Sat 12:00:01 PM 46.1633 -106.0278 285° West 399 459 36,000  Level Salt Lake Center
Sat 12:01:03 PM 46.1981 -106.2150 285° West 402 463 36,000  Level Salt Lake Center
Sat 12:02:05 PM 46.2261 -106.3719 285° West 404 465 36,000  Level Salt Lake Center
Sat 12:03:07 PM 46.2542 -106.5289 285° West 405 466 36,000  Level Salt Lake Center
Sat 12:04:09 PM 46.2825 -106.6836 285° West 402 463 36,000  Level Salt Lake Center
Sat 12:05:11 PM 46.3092 -106.8381 284° West 400 460 36,000  Level Salt Lake Center
Sat 12:06:13 PM 46.3356 -106.9931 284° West 399 459 36,000  Level Salt Lake Center
Sat 12:07:15 PM 46.3669 -107.1792 284° West 398 458 36,000  Level Salt Lake Center
Sat 12:08:17 PM 46.3931 -107.3353 284° West 400 460 36,000  Level Salt Lake Center
Sat 12:09:19 PM 46.4186 -107.4933 283° West 399 459 36,000  Level Salt Lake Center
Sat 12:10:21 PM 46.4447 -107.6483 284° West 399 459 36,000  Level Salt Lake Center
Sat 12:11:23 PM 46.4694 -107.8047 283° West 402 463 36,000  Level Salt Lake Center
Sat 12:12:25 PM 46.4953 -107.9594 284° West 397 457 36,000  Level Salt Lake Center
Sat 12:13:27 PM 46.5250 -108.1456 283° West 396 456 36,000  Level Salt Lake Center
Sat 12:14:29 PM 46.5494 -108.2997 283° West 395 455 36,000  Level Salt Lake Center
Sat 12:15:31 PM 46.5731 -108.4531 283° West 393 452 36,000  Level Salt Lake Center
Sat 12:16:33 PM 46.5969 -108.6053 283° West 389 448 36,000  Level Salt Lake Center
Sat 12:17:35 PM 46.6219 -108.7594 283° West 393 452 36,000  Level Salt Lake Center
Sat 12:18:37 PM 46.6444 -108.9122 282° West 389 448 36,000  Level Salt Lake Center
Sat 12:19:39 PM 46.6731 -109.0989 283° West 393 452 36,000  Level Salt Lake Center
Sat 12:20:41 PM 46.6967 -109.2547 283° West 394 453 36,000  Level Salt Lake Center
Sat 12:21:43 PM 46.7225 -109.4203 283° West 397 457 36,000  Level Salt Lake Center
Sat 12:22:45 PM 46.7439 -109.5772 281° West 395 455 36,000  Level Salt Lake Center
Sat 12:23:47 PM 46.7669 -109.7319 282° West 392 451 36,000  Level Salt Lake Center
Sat 12:24:49 PM 46.7897 -109.8844 282° West 389 448 36,000  Level Salt Lake Center
Sat 12:25:51 PM 46.8106 -110.0406 281° West 390 449 36,000  Level Salt Lake Center
Sat 12:26:53 PM 46.8328 -110.1936 282° West 388 447 36,000  Level Salt Lake Center
Sat 12:27:55 PM 46.8586 -110.3800 282° West 389 448 36,000  Level Salt Lake Center
Sat 12:28:57 PM 46.8806 -110.5372 282° West 393 452 36,000  Level Salt Lake Center
Sat 12:29:59 PM 46.9017 -110.6944 281° West 395 455 36,000  Level Salt Lake Center
Sat 12:31:01 PM 46.9225 -110.8536 281° West 396 456 36,000  Level Salt Lake Center
Sat 12:32:03 PM 46.9425 -111.0128 280° West 397 457 36,000  Level Salt Lake Center
Sat 12:33:05 PM 46.9639 -111.1753 281° West 402 463 36,000  Level Salt Lake Center
Sat 12:34:07 PM 46.9858 -111.3358 281° West 403 464 36,000  Level Salt Lake Center
Sat 12:35:11 PM 47.0100 -111.5328 280° West 407 468 36,000  Level Salt Lake Center
Sat 12:36:11 PM 47.0317 -111.6969 281° West 408 470 36,000  Level Salt Lake Center
Sat 12:37:13 PM 47.0511 -111.8611 280° West 408 470 36,000  Level Salt Lake Center
Sat 12:38:16 PM 47.0722 -112.0242 281° West 408 470 36,000  Level Salt Lake Center
Sat 12:39:18 PM 47.0911 -112.1864 280° West 404 465 36,000  Level Salt Lake Center
Sat 12:40:20 PM 47.1111 -112.3472 280° West 402 463 36,000  Level Salt Lake Center
Sat 12:41:22 PM 47.1303 -112.5086 280° West 400 460 36,000  Level Salt Lake Center
Sat 12:42:24 PM 47.1539 -112.7025 280° West 402 463 36,000  Level Salt Lake Center
Sat 12:43:26 PM 47.1731 -112.8639 280° West 401 461 36,000  Level Salt Lake Center
Sat 12:44:28 PM 47.1889 -113.0108 279° West 405 466 36,000  Level Salt Lake Center
Sat 12:45:30 PM 47.2106 -113.2067 279° West 406 467 36,000  Level Salt Lake Center
Sat 12:46:32 PM 47.2289 -113.3722 279° West 409 471 36,000  Level Salt Lake Center
Sat 12:47:34 PM 47.2472 -113.5367 279° West 409 471 36,000  Level Salt Lake Center
Sat 12:48:36 PM 47.2656 -113.7028 279° West 411 473 36,000  Level Salt Lake Center
Sat 12:49:38 PM 47.2822 -113.8669 279° West 407 468 36,000  Level Salt Lake Center
Sat 12:50:40 PM 47.3008 -114.0325 279° West 408 470 36,000  Level Salt Lake Center
Sat 12:51:42 PM 47.3206 -114.2311 278° West 407 468 36,000  Level Salt Lake Center
Sat 12:52:44 PM 47.3378 -114.3969 279° West 407 468 36,000  Level Salt Lake Center
Sat 12:53:45 PM 47.3542 -114.5636 278° West 408 470 36,000  Level Salt Lake Center
Sat 12:54:47 PM 47.3703 -114.7283 278° West 405 466 36,000  Level Salt Lake Center
Sat 12:55:49 PM 47.3867 -114.8942 278° West 407 468 36,000  Level Salt Lake Center
Sat 12:56:51 PM 47.4025 -115.0581 278° West 404 465 36,000  Level Salt Lake Center
Sat 12:57:53 PM 47.4183 -115.2225 278° West 403 464 36,000  Level Salt Lake Center
Sat 12:58:55 PM 47.4336 -115.3867 278° West 404 465 36,000  Level Salt Lake Center
Sat 12:59:57 PM 47.4508 -115.5819 278° West 402 463 36,000  Level Salt Lake Center
Sat 01:00:59 PM 47.4631 -115.7450 276° West 399 459 36,000  Level Salt Lake Center
Sat 01:02:00 PM 47.4733 -115.9067 275° West 398 458 36,000  Level Salt Lake Center
Sat 01:03:02 PM 47.4831 -116.0783 275° West 396 456 36,000  Level Salt Lake Center
Sat 01:04:04 PM 47.4933 -116.2417 275° West 399 459 36,000  Level Salt Lake Center
Sat 01:05:06 PM 47.5089 -116.4047 278° West 401 461 36,000  Level Salt Lake Center
Sat 01:06:17 PM 47.5272 -116.6006 278° West 402 463 36,000  Level Seattle Center
Sat 01:07:18 PM 47.5422 -116.7644 278° West 404 465 36,000  Level Seattle Center
Sat 01:08:19 PM 47.5572 -116.9275 278° West 403 464 36,000  Level Seattle Center
Sat 01:09:20 PM 47.5711 -117.0822 278° West 403 464 36,000  Level Seattle Center
Sat 01:10:21 PM 47.5867 -117.2722 277° West 403 464 36,000  Level Seattle Center
Sat 01:11:22 PM 47.6006 -117.4350 277° West 402 463 36,000  Level Seattle Center
Sat 01:12:24 PM 47.6142 -117.5978 277° West 399 459 36,000  Level Seattle Center
Sat 01:13:25 PM 47.6272 -117.7594 277° West 397 457 36,000  Level Seattle Center
Sat 01:14:26 PM 47.6406 -117.9208 277° West 397 457 36,000  Level Seattle Center
Sat 01:15:27 PM 47.6528 -118.0822 276° West 396 456 36,000  Level Seattle Center
Sat 01:16:28 PM 47.6656 -118.2444 277° West 397 457 36,000  Level Seattle Center
Sat 01:17:29 PM 47.6783 -118.4058 277° West 396 456 36,000  Level Seattle Center
Sat 01:18:30 PM 47.6925 -118.6014 276° West 397 457 36,000  Level Seattle Center
Sat 01:19:32 PM 47.7036 -118.7639 276° West 398 458 36,000  Level Seattle Center
Sat 01:20:33 PM 47.7147 -118.9256 276° West 395 455 36,000  Level Seattle Center
Sat 01:21:34 PM 47.7264 -119.0883 276° West 398 458 36,000 -443 Level Seattle Center
Sat 01:22:35 PM 47.7383 -119.2519 276° West 400 460 35,100 -934 Descending Seattle Center
Sat 01:23:36 PM 47.7497 -119.4183 276° West 404 465 34,100 -984 Descending Seattle Center
Sat 01:24:37 PM 47.7597 -119.5861 275° West 409 471 33,100 -934 Descending Seattle Center
Sat 01:25:38 PM 47.7714 -119.7558 276° West 413 475 32,200 -934 Descending Seattle Center
Sat 01:26:39 PM 47.7814 -119.9242 275° West 411 473 31,200 -1,024 Descending Seattle Center
Sat 01:27:41 PM 47.7908 -120.0903 275° West 406 467 30,100 -1,122 Descending Seattle Center
Sat 01:28:42 PM 47.8039 -120.2878 276° West 402 463 28,900 -1,180 Descending Seattle Center
Sat 01:29:43 PM 47.8119 -120.4486 274° West 395 455 27,700 -1,574 Descending Seattle Center
Sat 01:30:44 PM 47.8208 -120.6056 275° West 385 443 25,700 -1,967 Descending Seattle Center
Sat 01:31:45 PM 47.8294 -120.7594 275° West 376 433 23,700 -1,918 Descending Seattle Center
Sat 01:32:46 PM 47.8408 -120.9042 277° West 359 413 21,800 -1,869 Descending Seattle Center
Sat 01:33:47 PM 47.8475 -121.0469 274° West 350 403 19,900 -1,869 Descending Seattle Center
Sat 01:34:48 PM 47.8558 -121.1867 275° West 342 394 18,000 -1,820 Descending Seattle Center
Sat 01:35:49 PM 47.8606 -121.3228 273° West 334 384 16,200 -1,902 Descending Seattle Center
Sat 01:36:51 PM 47.8725 -121.4825 276° West 326 375 14,100 -1,854 Descending Seattle Center
Sat 01:37:52 PM 47.8797 -121.6122 275° West 320 368 12,400 -1,286 Descending Seattle Center
Sat 01:38:57 PM 47.8614 -121.7392 258° West 304 350 11,400 -1,180 Descending Seattle Center
Sat 01:39:54 PM 47.8050 -121.8139 222° Southwest 292 336 10,000 -1,576 Descending Seattle Center
Sat 01:40:55 PM 47.7714 -121.9328 247° West 290 334 8,300 -1,659 Descending Seattle Center
Sat 01:41:57 PM 47.7450 -122.0428 250° West 284 327 6,600 -1,261 Descending Seattle Center
Sat 01:43:13 PM 47.7150 -122.1686 251° West 232 267 5,400 -787 Descending Seattle Center
Sat 01:43:59 PM 47.7006 -122.2383 253° West 234 269 5,000 -724 Descending Seattle Center
Sat 01:45:09 PM 47.6619 -122.3197 235° Southwest 233 268 4,000 -836 Descending Seattle Center
Sat 01:46:01 PM 47.6117 -122.3172 178° South 227 261 3,300 -903 Descending Seattle Center
Sat 01:47:02 PM 47.5592 -122.3175 180° South 193 222 2,300 -878 Descending Seattle Center
Sat 01:48:04 PM 47.5117 -122.3178 180° South 164 189 1,500 -829 Descending Seattle Center
Sat 01:49:05 PM 47.4686 -122.3183 180° South 156 180 600 -541 Descending Seattle Center
Sat 01:50:06 PM 47.4250 -122.3197 181° South 157 181 400 -197 Descending Seattle Center

Login

Don't have an account? Register now (free) for customized features, flight alerts, and more!